createdAt,value
2023-04-16T00:01:46.914Z,98814.47
2023-04-16T00:04:13.664Z,98813.16
2023-04-16T00:06:40.370Z,98815.09
2023-04-16T00:09:07.278Z,98812.41
2023-04-16T00:11:34.166Z,98805.31
2023-04-16T00:14:00.724Z,98809.44
2023-04-16T00:16:28.015Z,98801.28
2023-04-16T00:18:54.632Z,98814.63
2023-04-16T00:21:21.292Z,98814.53
2023-04-16T00:23:47.888Z,98815.09
2023-04-16T00:26:14.464Z,98817.38
2023-04-16T00:28:41.512Z,98817.38
2023-04-16T00:31:08.128Z,98815.00
2023-04-16T00:33:34.753Z,98825.47
2023-04-16T00:36:01.594Z,98824.63
2023-04-16T00:38:30.255Z,98828.75
2023-04-16T00:41:00.251Z,98825.94
2023-04-16T00:43:32.598Z,98814.91
2023-04-16T00:45:59.337Z,98818.44
2023-04-16T00:48:32.191Z,98818.00
2023-04-16T00:51:01.002Z,98817.38
2023-04-16T00:53:30.525Z,98824.41
2023-04-16T00:55:57.416Z,98828.69
2023-04-16T00:58:24.415Z,98824.53
2023-04-16T01:00:51.387Z,98828.63
2023-04-16T01:03:43.798Z,98831.97
2023-04-16T01:06:11.734Z,98837.25
2023-04-16T01:08:39.050Z,98832.00
2023-04-16T01:11:06.140Z,98836.56
2023-04-16T01:13:33.789Z,98836.72
2023-04-16T01:16:01.500Z,98839.03
2023-04-16T01:18:28.094Z,98844.13
2023-04-16T01:20:56.531Z,98845.97
2023-04-16T01:23:23.197Z,98834.34
2023-04-16T01:25:49.790Z,98837.72
2023-04-16T01:28:16.891Z,98837.00
2023-04-16T01:30:43.746Z,98845.59
2023-04-16T01:33:12.804Z,98844.78
2023-04-16T01:35:40.976Z,98844.13
2023-04-16T01:38:09.367Z,98854.00
2023-04-16T01:40:37.340Z,98852.47
2023-04-16T01:43:04.773Z,98856.59
2023-04-16T01:45:34.701Z,98856.53
2023-04-16T01:48:03.752Z,98858.13
2023-04-16T01:50:31.234Z,98866.34
2023-04-16T01:52:59.072Z,98852.00
2023-04-16T01:55:26.774Z,98863.94
2023-04-16T01:57:53.449Z,98865.63
2023-04-16T02:00:22.630Z,98865.59
2023-04-16T02:02:49.391Z,98863.31
2023-04-16T02:05:16.267Z,98861.06
2023-04-16T02:07:42.824Z,98850.53
2023-04-16T02:10:10.246Z,98855.22
2023-04-16T02:12:36.928Z,98861.06
2023-04-16T02:15:09.977Z,98858.84
2023-04-16T02:17:36.639Z,98859.31
2023-04-16T02:20:05.573Z,98857.06
2023-04-16T02:22:32.212Z,98862.78
2023-04-16T02:24:58.875Z,98861.06
2023-04-16T02:27:25.863Z,98862.94
2023-04-16T02:29:52.473Z,98866.63
2023-04-16T02:32:19.163Z,98869.97
2023-04-16T02:34:48.253Z,98872.47
2023-04-16T02:37:15.484Z,98867.47
2023-04-16T02:39:42.821Z,98875.56
2023-04-16T02:42:09.421Z,98871.59
2023-04-16T02:44:38.547Z,98878.81
2023-04-16T02:47:05.362Z,98878.28
2023-04-16T02:49:32.064Z,98883.19
2023-04-16T02:51:58.664Z,98879.22
2023-04-16T02:54:25.278Z,98879.63
2023-04-16T02:56:51.836Z,98882.91
2023-04-16T02:59:18.444Z,98884.03
2023-04-16T03:01:45.079Z,98882.91
2023-04-16T03:04:11.837Z,98880.31
2023-04-16T03:06:38.517Z,98882.50
2023-04-16T03:09:05.712Z,98889.00
2023-04-16T03:11:35.422Z,98888.72
2023-04-16T03:14:02.078Z,98882.84
2023-04-16T03:16:28.649Z,98882.44
2023-04-16T03:18:55.242Z,98884.03
2023-04-16T03:21:21.876Z,98875.78
2023-04-16T03:23:48.795Z,98874.09
2023-04-16T03:26:15.386Z,98871.19
2023-04-16T03:28:41.961Z,98864.09
2023-04-16T03:31:08.542Z,98866.25
2023-04-16T03:33:36.041Z,98866.34
2023-04-16T03:36:03.307Z,98867.50
2023-04-16T03:38:29.887Z,98864.84
2023-04-16T03:40:56.496Z,98855.97
2023-04-16T03:43:23.108Z,98858.75
2023-04-16T03:45:52.248Z,98844.59
2023-04-16T03:48:18.867Z,98846.88
2023-04-16T03:50:47.437Z,98842.44
2023-04-16T03:53:14.690Z,98847.09
2023-04-16T03:55:42.096Z,98846.16
2023-04-16T03:58:08.943Z,98846.81
2023-04-16T04:00:35.517Z,98848.56
2023-04-16T04:03:02.446Z,98850.25
2023-04-16T04:05:29.245Z,98854.22
2023-04-16T04:07:55.877Z,98854.84
2023-04-16T04:10:22.524Z,98863.78
2023-04-16T04:12:49.115Z,98855.44
2023-04-16T04:15:16.055Z,98857.22
2023-04-16T04:17:42.988Z,98861.41
2023-04-16T04:20:10.565Z,98854.63
2023-04-16T04:22:37.212Z,98855.03
2023-04-16T04:25:04.033Z,98862.56
2023-04-16T04:27:30.681Z,98853.16
2023-04-16T04:29:57.942Z,98855.91
2023-04-16T04:32:24.632Z,98862.00
2023-04-16T04:34:51.458Z,98857.22
2023-04-16T04:37:18.045Z,98862.13
2023-04-16T04:39:44.630Z,98857.13
2023-04-16T04:42:11.451Z,98874.25
2023-04-16T04:44:39.403Z,98872.88
2023-04-16T04:47:05.974Z,98870.81
2023-04-16T04:49:32.514Z,98874.38
2023-04-16T04:51:59.080Z,98882.28
2023-04-16T04:54:25.849Z,98888.31
2023-04-16T04:56:52.456Z,98883.59
2023-04-16T04:59:20.862Z,98878.69
2023-04-16T05:01:49.716Z,98885.50
2023-04-16T05:04:16.716Z,98894.22
2023-04-16T05:06:44.030Z,98890.66
2023-04-16T05:09:13.750Z,98897.81
2023-04-16T05:11:43.239Z,98907.56
2023-04-16T05:14:09.872Z,98910.56
2023-04-16T05:16:37.781Z,98915.41
2023-04-16T05:19:10.384Z,98910.34
2023-04-16T05:21:37.090Z,98915.78
2023-04-16T05:24:03.757Z,98919.59
2023-04-16T05:26:30.375Z,98923.28
2023-04-16T05:28:57.007Z,98928.78
2023-04-16T05:31:23.670Z,98934.97
2023-04-16T05:33:50.515Z,98934.84
2023-04-16T05:36:17.154Z,98940.09
2023-04-16T05:38:43.725Z,98945.50
2023-04-16T05:41:10.527Z,98951.41
2023-04-16T05:43:37.090Z,98953.84
2023-04-16T05:46:03.839Z,98958.34
2023-04-16T05:48:30.934Z,98961.81
2023-04-16T05:50:57.509Z,98958.00
2023-04-16T05:53:24.091Z,98952.94
2023-04-16T05:55:50.838Z,98953.06
2023-04-16T05:58:17.426Z,98962.06
2023-04-16T06:00:44.056Z,98954.09
2023-04-16T06:03:19.977Z,98957.66
2023-04-16T06:05:46.739Z,98951.25
2023-04-16T06:08:17.175Z,98951.28
2023-04-16T06:10:47.264Z,98959.72
2023-04-16T06:13:14.047Z,98959.47
2023-04-16T06:15:40.719Z,98957.25
2023-04-16T06:18:07.460Z,98955.00
2023-04-16T06:20:34.116Z,98957.69
2023-04-16T06:23:00.918Z,98962.13
2023-04-16T06:25:27.633Z,98967.00
2023-04-16T06:27:59.796Z,98965.06
2023-04-16T06:30:26.538Z,98963.97
2023-04-16T06:32:53.526Z,98969.63
2023-04-16T06:35:20.207Z,98969.59
2023-04-16T06:37:47.085Z,98970.31
2023-04-16T06:40:14.192Z,98972.16
2023-04-16T06:42:41.854Z,98972.59
2023-04-16T06:45:12.217Z,98976.44
2023-04-16T06:47:38.887Z,98990.69
2023-04-16T06:50:06.759Z,98982.19
2023-04-16T06:52:33.487Z,98983.84
2023-04-16T06:55:00.167Z,98996.84
2023-04-16T06:57:26.844Z,98991.63
2023-04-16T06:59:53.536Z,98989.91
2023-04-16T07:02:20.420Z,98994.97
2023-04-16T07:04:47.095Z,98984.97
2023-04-16T07:07:13.715Z,98995.41
2023-04-16T07:09:40.269Z,98996.44
2023-04-16T07:12:07.263Z,98997.00
2023-04-16T07:14:43.930Z,98994.97
2023-04-16T07:17:16.225Z,99008.50
2023-04-16T07:19:51.976Z,99008.50
2023-04-16T07:22:28.563Z,99008.91
2023-04-16T07:25:01.882Z,99012.59
2023-04-16T07:27:33.659Z,99002.38
2023-04-16T07:30:01.826Z,99005.75
2023-04-16T07:32:35.781Z,99019.81
2023-04-16T07:35:12.486Z,99027.00
2023-04-16T07:37:47.740Z,99022.88
2023-04-16T07:40:16.366Z,99017.09
2023-04-16T07:42:43.559Z,99024.47
2023-04-16T07:45:14.891Z,99029.91
2023-04-16T07:47:51.491Z,99027.34
2023-04-16T07:50:19.456Z,99029.66
2023-04-16T07:52:56.038Z,99020.81
2023-04-16T07:55:24.661Z,99024.41
2023-04-16T07:58:02.492Z,99020.31
2023-04-16T08:00:30.161Z,99031.66
2023-04-16T08:02:57.012Z,99026.91
2023-04-16T08:05:23.829Z,99038.97
2023-04-16T08:07:50.456Z,99046.97
2023-04-16T08:10:17.184Z,99043.59
2023-04-16T08:12:43.870Z,99051.94
2023-04-16T08:15:10.913Z,99057.63
2023-04-16T08:17:37.915Z,99052.03
2023-04-16T08:20:07.500Z,99053.69
2023-04-16T08:22:34.115Z,99050.66
2023-04-16T08:25:00.876Z,99057.34
2023-04-16T08:27:27.666Z,99060.38
2023-04-16T08:29:54.256Z,99061.97
2023-04-16T08:32:21.015Z,99065.94
2023-04-16T08:34:47.690Z,99063.06
2023-04-16T08:37:14.335Z,99070.16
2023-04-16T08:39:41.189Z,99069.09
2023-04-16T08:42:19.099Z,99070.25
2023-04-16T08:44:49.572Z,99077.59
2023-04-16T08:47:16.745Z,99077.53
2023-04-16T08:49:48.421Z,99072.16
2023-04-16T08:52:22.041Z,99079.34
2023-04-16T08:54:59.934Z,99083.53
2023-04-16T08:57:49.476Z,99074.34
2023-04-16T09:00:16.647Z,99083.13
2023-04-16T09:02:43.933Z,99084.94
2023-04-16T09:05:16.872Z,99086.88
2023-04-16T09:07:46.344Z,99089.00
2023-04-16T09:10:15.123Z,99091.69
2023-04-16T09:12:42.864Z,99085.22
2023-04-16T09:15:13.795Z,99087.81
2023-04-16T09:17:40.825Z,99090.91
2023-04-16T09:20:11.182Z,99094.06
2023-04-16T09:22:39.879Z,99102.44
2023-04-16T09:25:07.435Z,99098.44
2023-04-16T09:27:34.079Z,99105.09
2023-04-16T09:30:00.735Z,99108.66
2023-04-16T09:32:28.595Z,99116.47
2023-04-16T09:35:00.417Z,99122.81
2023-04-16T09:37:31.784Z,99117.88
2023-04-16T09:40:01.740Z,99122.84
2023-04-16T09:42:37.597Z,99118.75
2023-04-16T09:45:05.983Z,99119.03
2023-04-16T09:47:45.141Z,99131.88
2023-04-16T09:50:20.018Z,99124.06
2023-04-16T09:52:51.066Z,99131.91
2023-04-16T09:55:23.694Z,99122.16
2023-04-16T09:58:00.902Z,99130.84
2023-04-16T10:00:30.553Z,99136.88
2023-04-16T10:03:05.735Z,99133.19
2023-04-16T10:05:32.589Z,99137.63
2023-04-16T10:08:02.369Z,99137.13
2023-04-16T10:10:29.990Z,99142.47
2023-04-16T10:12:57.782Z,99138.03
2023-04-16T10:15:25.071Z,99149.13
2023-04-16T10:17:52.943Z,99147.31
2023-04-16T10:20:19.970Z,99144.53
2023-04-16T10:22:46.763Z,99144.13
2023-04-16T10:25:13.400Z,99151.63
2023-04-16T10:27:41.233Z,99157.34
2023-04-16T10:30:09.597Z,99161.50
2023-04-16T10:32:40.761Z,99160.00
2023-04-16T10:35:07.825Z,99166.16
2023-04-16T10:37:34.472Z,99168.19
2023-04-16T10:40:01.241Z,99165.19
2023-04-16T10:42:27.926Z,99163.53
2023-04-16T10:44:54.632Z,99171.38
2023-04-16T10:47:25.338Z,99165.69
2023-04-16T10:49:52.152Z,99171.53
2023-04-16T10:52:18.812Z,99170.38
2023-04-16T10:54:48.281Z,99176.84
2023-04-16T10:57:17.658Z,99174.81
2023-04-16T10:59:45.216Z,99173.13
2023-04-16T11:02:20.451Z,99179.22
2023-04-16T11:04:49.485Z,99181.06
2023-04-16T11:07:22.421Z,99179.38
2023-04-16T11:10:00.233Z,99179.72
2023-04-16T11:12:47.105Z,99175.88
2023-04-16T11:15:15.717Z,99183.22
2023-04-16T11:17:52.525Z,99184.56
2023-04-16T11:20:24.860Z,99182.72
2023-04-16T11:22:53.707Z,99182.91
2023-04-16T11:25:31.769Z,99180.91
2023-04-16T11:28:01.538Z,99183.41
2023-04-16T11:30:34.780Z,99188.84
2023-04-16T11:33:09.084Z,99187.00
2023-04-16T11:35:35.812Z,99191.75
2023-04-16T11:38:02.435Z,99192.19
2023-04-16T11:40:31.973Z,99194.91
2023-04-16T11:43:14.968Z,99202.06
2023-04-16T11:46:02.663Z,99202.06
2023-04-16T11:48:52.688Z,99203.84
2023-04-16T11:51:20.488Z,99212.84
2023-04-16T11:53:52.905Z,99203.31
2023-04-16T11:56:30.837Z,99207.16
2023-04-16T11:59:11.538Z,99195.69
2023-04-16T12:01:41.164Z,99196.72
2023-04-16T12:04:08.941Z,99199.47
2023-04-16T12:06:35.993Z,99199.31
2023-04-16T12:09:24.201Z,99210.31
2023-04-16T12:11:50.967Z,99202.94
2023-04-16T12:14:17.666Z,99204.13
2023-04-16T12:16:44.359Z,99206.53
2023-04-16T12:19:12.985Z,99201.13
2023-04-16T12:21:42.999Z,99203.38
2023-04-16T12:24:13.422Z,99204.72
2023-04-16T12:26:48.730Z,99211.66
2023-04-16T12:29:18.244Z,99211.50
2023-04-16T12:31:48.369Z,99197.94
2023-04-16T12:34:15.631Z,99197.41
2023-04-16T12:36:43.277Z,99194.75
2023-04-16T12:39:11.290Z,99198.84
2023-04-16T12:41:40.873Z,99205.78
2023-04-16T12:44:16.446Z,99202.81
2023-04-16T12:46:44.120Z,99205.19
2023-04-16T12:49:14.818Z,99199.56
2023-04-16T12:51:42.045Z,99202.59
2023-04-16T12:54:08.619Z,99210.63
2023-04-16T12:56:36.107Z,99206.28
2023-04-16T12:59:03.328Z,99198.09
2023-04-16T13:01:30.116Z,99193.88
2023-04-16T13:03:57.013Z,99200.88
2023-04-16T13:06:23.919Z,99201.78
2023-04-16T13:08:50.472Z,99196.09
2023-04-16T13:11:17.150Z,99201.25
2023-04-16T13:13:43.765Z,99205.44
2023-04-16T13:16:11.117Z,99205.97
2023-04-16T13:18:37.771Z,99204.25
2023-04-16T13:21:04.458Z,99212.06
2023-04-16T13:23:31.397Z,99219.84
2023-04-16T13:25:58.013Z,99208.94
2023-04-16T13:28:24.651Z,99213.94
2023-04-16T13:30:52.028Z,99210.28
2023-04-16T13:33:20.809Z,99210.72
2023-04-16T13:35:49.793Z,99209.94
2023-04-16T13:38:16.808Z,99221.72
2023-04-16T13:40:43.505Z,99225.16
2023-04-16T13:43:10.231Z,99226.66
2023-04-16T13:45:38.058Z,99226.53
2023-04-16T13:48:05.379Z,99222.59
2023-04-16T13:50:32.002Z,99221.41
2023-04-16T13:52:58.576Z,99218.09
2023-04-16T13:55:25.323Z,99223.03
2023-04-16T13:57:53.157Z,99226.16
2023-04-16T14:00:20.298Z,99215.84
2023-04-16T14:02:48.537Z,99220.63
2023-04-16T14:05:15.657Z,99220.78
2023-04-16T14:07:42.358Z,99215.22
2023-04-16T14:10:09.900Z,99219.81
2023-04-16T14:12:37.984Z,99216.09
2023-04-16T14:15:09.580Z,99218.16
2023-04-16T14:17:39.709Z,99225.09
2023-04-16T14:20:07.095Z,99221.34
2023-04-16T14:22:33.684Z,99225.09
2023-04-16T14:25:00.964Z,99231.91
2023-04-16T14:27:28.684Z,99231.16
2023-04-16T14:29:55.314Z,99230.72
2023-04-16T14:32:22.186Z,99237.47
2023-04-16T14:34:48.948Z,99227.50
2023-04-16T14:37:26.488Z,99231.13
2023-04-16T14:39:53.913Z,99229.00
2023-04-16T14:42:20.741Z,99227.59
2023-04-16T14:44:47.338Z,99225.97
2023-04-16T14:47:13.961Z,99234.00
2023-04-16T14:49:40.518Z,99228.50
2023-04-16T14:52:07.266Z,99227.56
2023-04-16T14:54:33.935Z,99230.75
2023-04-16T14:57:01.835Z,99235.75
2023-04-16T14:59:28.677Z,99229.88
2023-04-16T15:01:57.005Z,99242.97
2023-04-16T15:04:30.698Z,99234.91
2023-04-16T15:06:58.985Z,99236.66
2023-04-16T15:09:29.234Z,99236.38
2023-04-16T15:11:56.774Z,99240.78
2023-04-16T15:14:23.679Z,99238.66
2023-04-16T15:16:50.463Z,99244.06
2023-04-16T15:19:17.575Z,99241.00
2023-04-16T15:21:48.894Z,99245.69
2023-04-16T15:24:15.540Z,99247.50
2023-04-16T15:26:42.148Z,99243.31
2023-04-16T15:29:08.812Z,99244.66
2023-04-16T15:31:35.418Z,99245.09
2023-04-16T15:34:02.085Z,99243.69
2023-04-16T15:36:28.780Z,99246.31
2023-04-16T15:38:55.492Z,99241.13
2023-04-16T15:41:22.417Z,99236.97
2023-04-16T15:43:49.273Z,99246.84
2023-04-16T15:46:16.219Z,99248.06
2023-04-16T15:48:42.872Z,99246.63
2023-04-16T15:51:12.121Z,99247.16
2023-04-16T15:53:38.873Z,99248.16
2023-04-16T15:56:06.022Z,99258.69
2023-04-16T15:58:32.603Z,99257.66
2023-04-16T16:00:59.176Z,99255.38
2023-04-16T16:03:26.144Z,99246.63
2023-04-16T16:05:52.880Z,99252.94
2023-04-16T16:08:20.411Z,99262.88
2023-04-16T16:10:47.037Z,99263.19
2023-04-16T16:13:17.807Z,99265.44
2023-04-16T16:15:47.229Z,99261.06
2023-04-16T16:18:13.809Z,99269.25
2023-04-16T16:20:40.486Z,99271.47
2023-04-16T16:23:07.431Z,99268.22
2023-04-16T16:25:34.141Z,99271.47
2023-04-16T16:28:02.504Z,99271.66
2023-04-16T16:30:30.502Z,99278.28
2023-04-16T16:32:57.622Z,99278.59
2023-04-16T16:35:25.900Z,99272.31
2023-04-16T16:37:57.100Z,99279.53
2023-04-16T16:40:23.872Z,99272.31
2023-04-16T16:42:50.720Z,99281.50
2023-04-16T16:45:17.386Z,99267.50
2023-04-16T16:47:44.071Z,99273.31
2023-04-16T16:50:11.464Z,99275.09
2023-04-16T16:52:38.823Z,99275.97
2023-04-16T16:55:08.519Z,99282.28
2023-04-16T16:57:35.068Z,99287.78
2023-04-16T17:00:01.679Z,99289.78
2023-04-16T17:02:28.281Z,99289.22
2023-04-16T17:04:55.132Z,99292.88
2023-04-16T17:07:21.834Z,99285.44
2023-04-16T17:09:48.487Z,99293.78
2023-04-16T17:12:15.909Z,99288.03
2023-04-16T17:14:42.474Z,99287.69
2023-04-16T17:17:09.180Z,99304.06
2023-04-16T17:19:35.746Z,99295.50
2023-04-16T17:22:03.140Z,99294.91
2023-04-16T17:24:29.741Z,99295.97
2023-04-16T17:26:58.340Z,99304.72
2023-04-16T17:29:26.168Z,99309.56
2023-04-16T17:31:53.583Z,99310.91
2023-04-16T17:34:20.945Z,99307.09
2023-04-16T17:36:47.808Z,99310.56
2023-04-16T17:39:14.611Z,99315.25
2023-04-16T17:41:41.187Z,99308.75
2023-04-16T17:44:08.893Z,99315.63
2023-04-16T17:46:37.276Z,99315.91
2023-04-16T17:49:04.086Z,99314.56
2023-04-16T17:51:31.234Z,99322.75
2023-04-16T17:53:57.826Z,99321.38
2023-04-16T17:56:24.453Z,99322.13
2023-04-16T17:58:51.157Z,99328.25
2023-04-16T18:01:17.781Z,99324.56
2023-04-16T18:03:44.812Z,99336.53
2023-04-16T18:06:11.653Z,99335.47
2023-04-16T18:08:38.826Z,99337.41
2023-04-16T18:11:08.685Z,99339.72
2023-04-16T18:13:35.570Z,99338.75
2023-04-16T18:16:02.843Z,99343.75
2023-04-16T18:18:29.523Z,99351.09
2023-04-16T18:20:56.121Z,99350.13
2023-04-16T18:23:22.700Z,99364.25
2023-04-16T18:25:49.325Z,99358.66
2023-04-16T18:28:17.483Z,99352.63
2023-04-16T18:30:44.100Z,99363.06
2023-04-16T18:33:42.790Z,99371.00
2023-04-16T18:36:02.104Z,99367.34
2023-04-16T18:38:31.125Z,99369.88
2023-04-16T18:40:58.296Z,99368.50
2023-04-16T18:43:25.169Z,99373.94
2023-04-16T18:45:52.788Z,99377.13
2023-04-16T18:48:19.380Z,99377.38
2023-04-16T18:50:45.956Z,99375.88
2023-04-16T18:53:12.736Z,99385.81
2023-04-16T18:55:39.342Z,99381.34
2023-04-16T18:58:06.080Z,99385.34
2023-04-16T19:00:33.715Z,99392.72
2023-04-16T19:03:00.559Z,99387.75
2023-04-16T19:05:27.158Z,99389.34
2023-04-16T19:07:54.190Z,99397.00
2023-04-16T19:10:20.780Z,99400.53
2023-04-16T19:12:47.366Z,99395.09
2023-04-16T19:15:14.578Z,99397.16
2023-04-16T19:17:41.243Z,99412.13
2023-04-16T19:20:11.114Z,99395.81
2023-04-16T19:22:47.841Z,99407.16
2023-04-16T19:25:14.497Z,99400.00
2023-04-16T19:27:41.345Z,99409.97
2023-04-16T19:30:08.752Z,99410.75
2023-04-16T19:32:35.445Z,99407.53
2023-04-16T19:35:03.857Z,99407.78
2023-04-16T19:37:30.421Z,99409.41
2023-04-16T19:39:57.032Z,99396.22
2023-04-16T19:42:23.727Z,99397.94
2023-04-16T19:44:50.351Z,99409.94
2023-04-16T19:47:16.987Z,99405.38
2023-04-16T19:49:43.632Z,99413.31
2023-04-16T19:52:10.226Z,99407.31
2023-04-16T19:54:37.464Z,99405.97
2023-04-16T19:57:04.343Z,99412.97
2023-04-16T19:59:34.408Z,99411.16
2023-04-16T20:02:01.498Z,99417.59
2023-04-16T20:04:28.373Z,99411.09
2023-04-16T20:06:55.218Z,99416.59
2023-04-16T20:09:21.919Z,99417.53
2023-04-16T20:11:48.553Z,99416.38
2023-04-16T20:14:15.154Z,99426.28
2023-04-16T20:16:43.483Z,99425.53
2023-04-16T20:19:10.854Z,99424.22
2023-04-16T20:21:37.774Z,99430.59
2023-04-16T20:24:04.594Z,99425.16
2023-04-16T20:26:34.089Z,99424.75
2023-04-16T20:29:01.029Z,99417.78
2023-04-16T20:31:27.807Z,99426.66
2023-04-16T20:33:56.044Z,99422.13
2023-04-16T20:36:22.674Z,99421.00
2023-04-16T20:38:50.781Z,99417.97
2023-04-16T20:41:22.310Z,99424.78
2023-04-16T20:43:52.712Z,99423.66
2023-04-16T20:46:24.376Z,99420.25
2023-04-16T20:48:51.689Z,99428.91
2023-04-16T20:51:18.321Z,99413.09
2023-04-16T20:53:45.009Z,99418.34
2023-04-16T20:56:14.560Z,99418.94
2023-04-16T20:58:41.850Z,99417.25
2023-04-16T21:01:08.545Z,99416.47
2023-04-16T21:03:35.596Z,99415.34
2023-04-16T21:06:03.438Z,99420.28
2023-04-16T21:08:30.301Z,99415.16
2023-04-16T21:10:56.947Z,99411.78
2023-04-16T21:13:23.635Z,99408.19
2023-04-16T21:15:50.385Z,99416.84
2023-04-16T21:18:23.108Z,99411.22
2023-04-16T21:20:49.754Z,99408.16
2023-04-16T21:23:16.443Z,99421.59
2023-04-16T21:25:43.142Z,99411.38
2023-04-16T21:28:09.702Z,99413.81
2023-04-16T21:30:36.877Z,99415.56
2023-04-16T21:33:03.786Z,99404.00
2023-04-16T21:35:33.987Z,99409.69
2023-04-16T21:38:00.576Z,99413.84
2023-04-16T21:40:27.204Z,99417.06
2023-04-16T21:42:53.866Z,99419.34
2023-04-16T21:45:20.568Z,99416.13
2023-04-16T21:47:47.179Z,99412.50
2023-04-16T21:50:13.840Z,99416.31
2023-04-16T21:52:45.898Z,99416.69
2023-04-16T21:55:15.939Z,99406.09
2023-04-16T21:57:42.548Z,99406.09
2023-04-16T22:00:13.551Z,99406.31
2023-04-16T22:02:42.237Z,99411.59
2023-04-16T22:05:10.591Z,99408.56
2023-04-16T22:07:37.633Z,99410.25
2023-04-16T22:10:05.155Z,99410.81
2023-04-16T22:12:32.257Z,99405.91
2023-04-16T22:15:02.934Z,99404.22
2023-04-16T22:17:30.077Z,99404.41
2023-04-16T22:20:00.323Z,99409.88
2023-04-16T22:22:26.962Z,99407.63
2023-04-16T22:24:53.554Z,99410.81
2023-04-16T22:27:20.402Z,99414.03
2023-04-16T22:29:47.008Z,99407.06
2023-04-16T22:32:13.672Z,99411.97
2023-04-16T22:34:40.366Z,99410.81
2023-04-16T22:37:07.982Z,99406.50
2023-04-16T22:39:35.450Z,99408.94
2023-04-16T22:42:02.434Z,99413.09
2023-04-16T22:44:29.084Z,99413.47
2023-04-16T22:46:55.649Z,99409.69
2023-04-16T22:49:22.279Z,99410.03
2023-04-16T22:51:48.906Z,99403.81
2023-04-16T22:54:15.678Z,99404.59
2023-04-16T22:56:42.598Z,99400.97
2023-04-16T22:59:09.577Z,99399.47
2023-04-16T23:01:36.519Z,99408.94
2023-04-16T23:04:07.104Z,99404.34
2023-04-16T23:06:44.177Z,99406.63
2023-04-16T23:09:10.979Z,99401.19
2023-04-16T23:11:37.699Z,99407.22
2023-04-16T23:14:04.924Z,99406.31
2023-04-16T23:16:31.650Z,99404.78
2023-04-16T23:18:58.289Z,99408.94
2023-04-16T23:21:24.958Z,99405.91
2023-04-16T23:23:51.690Z,99408.72
2023-04-16T23:26:18.334Z,99407.06
2023-04-16T23:28:44.889Z,99398.38
2023-04-16T23:31:11.543Z,99398.34
2023-04-16T23:33:38.138Z,99403.47
2023-04-16T23:36:05.401Z,99405.53
2023-04-16T23:38:32.039Z,99397.25
2023-04-16T23:40:58.625Z,99399.50
2023-04-16T23:43:25.280Z,99398.16
2023-04-16T23:45:51.910Z,99390.81
2023-04-16T23:48:18.688Z,99393.09
2023-04-16T23:50:45.382Z,99397.41
2023-04-16T23:53:12.054Z,99396.09
2023-04-16T23:55:39.030Z,99388.00
2023-04-16T23:58:05.677Z,99390.41
